createdAt,value
2023-06-06T00:00:10.822Z,69.42
2023-06-06T00:03:01.501Z,69.35
2023-06-06T00:05:30.906Z,69.33
2023-06-06T00:07:59.461Z,69.20
2023-06-06T00:10:27.412Z,69.32
2023-06-06T00:12:56.465Z,69.09
2023-06-06T00:15:25.986Z,69.19
2023-06-06T00:17:56.865Z,68.99
2023-06-06T00:20:26.127Z,68.95
2023-06-06T00:22:54.964Z,69.05
2023-06-06T00:25:23.189Z,68.99
2023-06-06T00:27:51.119Z,69.09
2023-06-06T00:30:19.304Z,69.42
2023-06-06T00:32:47.270Z,69.75
2023-06-06T00:35:15.457Z,70.00
2023-06-06T00:37:43.995Z,69.86
2023-06-06T00:40:13.578Z,69.79
2023-06-06T00:42:41.612Z,69.93
2023-06-06T00:45:09.932Z,69.69
2023-06-06T00:47:40.033Z,69.83
2023-06-06T00:50:09.707Z,69.50
2023-06-06T00:52:38.694Z,69.44
2023-06-06T00:55:07.234Z,69.26
2023-06-06T00:57:38.405Z,69.17
2023-06-06T01:00:09.652Z,69.24
2023-06-06T01:02:40.834Z,69.24
2023-06-06T01:05:09.113Z,69.58
2023-06-06T01:07:37.805Z,69.71
2023-06-06T01:10:09.679Z,69.58
2023-06-06T01:13:04.637Z,69.99
2023-06-06T01:16:01.268Z,70.16
2023-06-06T01:18:33.401Z,70.35
2023-06-06T01:21:03.094Z,71.05
2023-06-06T01:23:31.892Z,71.72
2023-06-06T01:26:07.169Z,71.63
2023-06-06T01:28:35.238Z,71.75
2023-06-06T01:31:04.377Z,71.61
2023-06-06T01:33:52.002Z,71.72
2023-06-06T01:36:38.872Z,72.02
2023-06-06T01:39:16.765Z,72.39
2023-06-06T01:41:47.359Z,72.44
2023-06-06T01:44:17.444Z,72.85
2023-06-06T01:46:46.084Z,72.61
2023-06-06T01:49:17.208Z,72.68
2023-06-06T01:51:45.452Z,73.14
2023-06-06T01:54:13.576Z,73.22
2023-06-06T01:56:41.513Z,73.37
2023-06-06T01:59:11.174Z,73.78
2023-06-06T02:01:39.247Z,74.43
2023-06-06T02:04:07.715Z,74.86
2023-06-06T02:06:36.807Z,74.74
2023-06-06T02:09:04.786Z,74.77
2023-06-06T02:11:37.140Z,75.12
2023-06-06T02:14:05.136Z,75.27
2023-06-06T02:16:33.131Z,75.38
2023-06-06T02:19:01.246Z,75.61
2023-06-06T02:21:29.777Z,75.68
2023-06-06T02:23:57.697Z,75.55
2023-06-06T02:26:25.747Z,75.85
2023-06-06T02:28:53.681Z,76.49
2023-06-06T02:31:23.075Z,76.41
2023-06-06T02:33:51.409Z,76.01
2023-06-06T02:36:20.125Z,76.36
2023-06-06T02:38:48.698Z,76.31
2023-06-06T02:41:17.120Z,77.18
2023-06-06T02:43:47.012Z,77.35
2023-06-06T02:46:15.062Z,76.84
2023-06-06T02:48:50.284Z,76.59
2023-06-06T02:51:21.401Z,76.70
2023-06-06T02:53:51.240Z,76.44
2023-06-06T02:56:20.024Z,75.93
2023-06-06T02:58:48.684Z,76.09
2023-06-06T03:01:16.788Z,76.30
2023-06-06T03:03:45.187Z,76.70
2023-06-06T03:06:14.114Z,76.63
2023-06-06T03:08:45.190Z,76.42
2023-06-06T03:11:13.421Z,76.18
2023-06-06T03:13:41.660Z,77.07
2023-06-06T03:16:09.530Z,77.67
2023-06-06T03:18:40.611Z,77.12
2023-06-06T03:21:12.029Z,77.23
2023-06-06T03:23:44.157Z,77.28
2023-06-06T03:26:13.321Z,77.45
2023-06-06T03:28:42.299Z,78.84
2023-06-06T03:31:13.075Z,78.42
2023-06-06T03:33:49.627Z,78.22
2023-06-06T03:36:27.961Z,78.78
2023-06-06T03:38:56.540Z,79.82
2023-06-06T03:41:24.842Z,79.33
2023-06-06T03:43:52.866Z,79.59
2023-06-06T03:46:21.772Z,79.86
2023-06-06T03:48:51.104Z,80.07
2023-06-06T03:51:19.189Z,79.89
2023-06-06T03:53:47.135Z,79.81
2023-06-06T03:56:15.252Z,79.62
2023-06-06T03:58:43.253Z,79.43
2023-06-06T04:01:11.627Z,79.45
2023-06-06T04:03:40.249Z,79.74
2023-06-06T04:06:09.770Z,79.37
2023-06-06T04:08:40.772Z,79.55
2023-06-06T04:11:08.953Z,79.49
2023-06-06T04:13:37.326Z,79.03
2023-06-06T04:16:05.853Z,78.82
2023-06-06T04:18:35.078Z,78.83
2023-06-06T04:21:03.195Z,78.60
2023-06-06T04:23:31.273Z,77.92
2023-06-06T04:26:03.013Z,77.83
2023-06-06T04:28:33.382Z,77.24
2023-06-06T04:31:02.152Z,76.65
2023-06-06T04:33:34.078Z,76.00
2023-06-06T04:36:02.241Z,75.41
2023-06-06T04:38:31.571Z,74.60
2023-06-06T04:41:21.239Z,74.19
2023-06-06T04:43:53.604Z,73.79
2023-06-06T04:46:25.935Z,73.28
2023-06-06T04:48:55.587Z,72.88
2023-06-06T04:51:32.433Z,72.67
2023-06-06T04:54:04.901Z,72.12
2023-06-06T04:56:34.253Z,71.36
2023-06-06T04:59:08.465Z,71.02
2023-06-06T05:01:39.380Z,70.50
2023-06-06T05:04:08.778Z,70.03
2023-06-06T05:06:38.018Z,69.72
2023-06-06T05:09:06.180Z,69.55
2023-06-06T05:11:36.571Z,69.36
2023-06-06T05:14:05.910Z,68.93
2023-06-06T05:16:34.074Z,68.61
2023-06-06T05:19:02.024Z,68.14
2023-06-06T05:21:29.891Z,67.91
2023-06-06T05:24:00.874Z,66.72
2023-06-06T05:26:31.238Z,67.16
2023-06-06T05:29:02.192Z,67.58
2023-06-06T05:31:30.229Z,67.58
2023-06-06T05:33:58.171Z,67.59
2023-06-06T05:36:26.120Z,67.53
2023-06-06T05:38:55.750Z,67.22
2023-06-06T05:41:25.034Z,66.89
2023-06-06T05:43:52.975Z,66.62
2023-06-06T05:46:21.034Z,66.38
2023-06-06T05:48:50.027Z,66.20
2023-06-06T05:51:19.401Z,66.21
2023-06-06T05:53:47.406Z,66.02
2023-06-06T05:56:19.582Z,65.58
2023-06-06T05:58:50.590Z,65.23
2023-06-06T06:01:18.542Z,64.46
2023-06-06T06:03:51.009Z,64.25
2023-06-06T06:06:21.489Z,63.87
2023-06-06T06:08:51.948Z,63.85
2023-06-06T06:11:21.663Z,63.46
2023-06-06T06:13:49.704Z,62.90
2023-06-06T06:16:17.710Z,62.27
2023-06-06T06:18:46.747Z,62.26
2023-06-06T06:21:15.978Z,62.48
2023-06-06T06:23:46.030Z,62.32
2023-06-06T06:26:14.266Z,62.02
2023-06-06T06:28:42.261Z,61.38
2023-06-06T06:31:10.451Z,61.29
2023-06-06T06:33:39.783Z,61.47
2023-06-06T06:36:07.834Z,61.19
2023-06-06T06:38:37.734Z,60.96
2023-06-06T06:41:05.751Z,60.82
2023-06-06T06:43:34.054Z,60.46
2023-06-06T06:46:04.839Z,60.38
2023-06-06T06:48:32.850Z,60.15
2023-06-06T06:51:00.857Z,59.55
2023-06-06T06:53:34.198Z,59.55
2023-06-06T06:56:03.289Z,59.24
2023-06-06T06:58:35.948Z,59.12
2023-06-06T07:01:05.233Z,58.96
2023-06-06T07:03:36.337Z,58.82
2023-06-06T07:06:08.339Z,58.72
2023-06-06T07:08:36.394Z,58.72
2023-06-06T07:11:04.569Z,58.51
2023-06-06T07:13:33.678Z,58.24
2023-06-06T07:16:03.399Z,57.81
2023-06-06T07:18:32.594Z,57.89
2023-06-06T07:21:00.681Z,57.61
2023-06-06T07:23:28.629Z,57.60
2023-06-06T07:25:57.907Z,57.03
2023-06-06T07:28:27.912Z,56.67
2023-06-06T07:30:55.969Z,56.94
2023-06-06T07:33:24.059Z,56.26
2023-06-06T07:35:52.028Z,56.29
2023-06-06T07:38:21.232Z,55.56
2023-06-06T07:40:49.319Z,55.86
2023-06-06T07:43:17.261Z,55.48
2023-06-06T07:45:46.564Z,55.13
2023-06-06T07:48:14.820Z,55.16
2023-06-06T07:50:42.977Z,55.31
2023-06-06T07:53:13.148Z,55.28
2023-06-06T07:55:43.093Z,54.93
2023-06-06T07:58:13.790Z,53.90
2023-06-06T08:00:47.143Z,52.95
2023-06-06T08:03:17.200Z,53.38
2023-06-06T08:05:45.412Z,53.11
2023-06-06T08:08:13.388Z,52.53
2023-06-06T08:10:41.328Z,51.90
2023-06-06T08:13:10.602Z,50.67
2023-06-06T08:15:38.473Z,50.94
2023-06-06T08:18:06.678Z,50.74
2023-06-06T08:20:35.909Z,50.55
2023-06-06T08:23:04.884Z,51.09
2023-06-06T08:25:40.845Z,51.14
2023-06-06T08:28:08.861Z,51.06
2023-06-06T08:30:36.737Z,51.28
2023-06-06T08:33:04.689Z,50.82
2023-06-06T08:35:32.672Z,50.62
2023-06-06T08:38:02.694Z,50.35
2023-06-06T08:40:32.659Z,50.29
2023-06-06T08:43:02.464Z,50.23
2023-06-06T08:45:30.488Z,49.94
2023-06-06T08:48:04.235Z,49.90
2023-06-06T08:50:34.387Z,49.32
2023-06-06T08:53:05.908Z,49.58
2023-06-06T08:55:36.315Z,49.36
2023-06-06T08:58:06.245Z,47.78
2023-06-06T09:00:34.462Z,47.62
2023-06-06T09:03:08.210Z,46.97
2023-06-06T09:05:39.348Z,47.22
2023-06-06T09:08:11.820Z,46.65
2023-06-06T09:10:39.798Z,46.16
2023-06-06T09:13:09.337Z,46.09
2023-06-06T09:15:37.211Z,45.73
2023-06-06T09:18:05.189Z,45.14
2023-06-06T09:20:36.141Z,45.42
2023-06-06T09:23:06.223Z,45.53
2023-06-06T09:25:34.245Z,45.74
2023-06-06T09:28:04.974Z,44.16
2023-06-06T09:30:37.266Z,44.27
2023-06-06T09:33:06.793Z,44.98
2023-06-06T09:35:37.768Z,44.71
2023-06-06T09:38:18.080Z,44.38
2023-06-06T09:40:53.182Z,44.62
2023-06-06T09:43:26.574Z,44.47
2023-06-06T09:46:00.954Z,44.45
2023-06-06T09:48:30.118Z,44.20
2023-06-06T09:51:00.515Z,43.34
2023-06-06T09:53:33.307Z,42.56
2023-06-06T09:56:05.833Z,43.55
2023-06-06T09:58:36.167Z,41.91
2023-06-06T10:01:08.658Z,41.69
2023-06-06T10:03:39.099Z,41.54
2023-06-06T10:06:09.587Z,42.01
2023-06-06T10:08:40.193Z,41.68
2023-06-06T10:11:10.040Z,41.45
2023-06-06T10:13:39.365Z,40.85
2023-06-06T10:16:11.588Z,40.54
2023-06-06T10:18:48.268Z,39.29
2023-06-06T10:21:17.769Z,38.99
2023-06-06T10:23:47.277Z,39.17
2023-06-06T10:26:28.825Z,38.17
2023-06-06T10:29:01.946Z,37.64
2023-06-06T10:31:36.437Z,36.52
2023-06-06T10:34:09.340Z,35.62
2023-06-06T10:36:45.982Z,35.58
2023-06-06T10:39:24.343Z,35.15
2023-06-06T10:41:54.545Z,35.02
2023-06-06T10:44:39.847Z,34.42
2023-06-06T10:47:32.025Z,35.01
2023-06-06T10:50:19.481Z,35.36
2023-06-06T10:53:00.011Z,35.73
2023-06-06T10:55:29.272Z,35.90
2023-06-06T10:58:26.590Z,35.92
2023-06-06T11:00:59.987Z,34.20
2023-06-06T11:03:43.209Z,33.89
2023-06-06T11:06:14.779Z,34.43
2023-06-06T11:08:46.042Z,33.84
2023-06-06T11:11:16.680Z,34.16
2023-06-06T11:13:58.933Z,32.87
2023-06-06T11:16:50.257Z,32.01
2023-06-06T11:19:23.858Z,32.22
2023-06-06T11:21:59.886Z,30.15
2023-06-06T11:24:37.048Z,30.72
2023-06-06T11:27:07.508Z,30.94
2023-06-06T11:29:37.691Z,29.70
2023-06-06T11:32:13.464Z,30.11
2023-06-06T11:34:42.797Z,30.31
2023-06-06T11:37:12.045Z,29.36
2023-06-06T11:39:40.076Z,30.19
2023-06-06T11:42:19.260Z,28.51
2023-06-06T11:44:47.375Z,28.00
2023-06-06T11:47:15.641Z,28.73
2023-06-06T11:49:46.787Z,28.82
2023-06-06T11:52:16.943Z,28.58
2023-06-06T11:55:06.519Z,29.23
2023-06-06T11:57:39.710Z,29.40
2023-06-06T12:00:19.575Z,29.18
2023-06-06T12:02:53.860Z,29.40
2023-06-06T12:05:26.671Z,29.26
2023-06-06T12:08:01.579Z,29.03
2023-06-06T12:10:33.063Z,28.43
2023-06-06T12:13:01.213Z,27.76
2023-06-06T12:15:49.530Z,28.05
2023-06-06T12:18:18.228Z,28.17
2023-06-06T12:20:48.613Z,28.03
2023-06-06T12:23:33.803Z,26.93
2023-06-06T12:26:04.380Z,26.00
2023-06-06T12:28:34.055Z,27.20
2023-06-06T12:31:19.145Z,27.19
2023-06-06T12:33:48.725Z,26.63
2023-06-06T12:36:23.003Z,27.21
2023-06-06T12:39:14.571Z,26.87
2023-06-06T12:41:44.409Z,27.20
2023-06-06T12:44:17.491Z,27.15
2023-06-06T12:46:47.140Z,27.36
2023-06-06T12:49:15.175Z,27.11
2023-06-06T12:51:44.997Z,26.39
2023-06-06T12:54:13.063Z,27.10
2023-06-06T12:56:41.168Z,26.80
2023-06-06T12:59:10.487Z,26.99
2023-06-06T13:01:42.267Z,26.77
2023-06-06T13:04:11.801Z,26.30
2023-06-06T13:06:42.376Z,26.01
2023-06-06T13:09:10.475Z,26.15
2023-06-06T13:11:38.691Z,25.83
2023-06-06T13:14:08.659Z,25.50
2023-06-06T13:16:38.656Z,26.33
2023-06-06T13:19:08.222Z,26.45
2023-06-06T13:21:37.461Z,26.52
2023-06-06T13:24:10.888Z,26.16
2023-06-06T13:26:41.658Z,26.51
2023-06-06T13:29:11.856Z,26.41
2023-06-06T13:31:46.506Z,26.33
2023-06-06T13:34:16.817Z,26.84
2023-06-06T13:36:44.854Z,26.39
2023-06-06T13:39:12.733Z,25.86
2023-06-06T13:41:44.385Z,26.28
2023-06-06T13:44:23.320Z,26.10
2023-06-06T13:49:25.925Z,26.44
2023-06-06T13:51:53.890Z,26.95
2023-06-06T13:54:25.096Z,25.62
2023-06-06T13:56:56.474Z,25.83
2023-06-06T13:59:24.449Z,26.68
2023-06-06T14:01:54.006Z,26.32
2023-06-06T14:04:23.599Z,26.09
2023-06-06T14:06:54.941Z,26.58
2023-06-06T14:09:24.662Z,26.75
2023-06-06T14:11:52.576Z,26.41
2023-06-06T14:14:20.630Z,26.67
2023-06-06T14:16:52.155Z,25.95
2023-06-06T14:19:38.019Z,25.77
2023-06-06T14:22:40.091Z,25.77
2023-06-06T14:25:09.698Z,25.42
2023-06-06T14:27:40.627Z,25.13
2023-06-06T14:30:12.085Z,25.29
2023-06-06T14:32:41.816Z,24.66
2023-06-06T14:35:12.365Z,23.58
2023-06-06T14:37:40.411Z,20.96
2023-06-06T14:40:12.050Z,19.92
2023-06-06T14:42:41.818Z,18.72
2023-06-06T14:45:11.276Z,19.15
2023-06-06T14:47:39.480Z,20.21
2023-06-06T14:50:07.908Z,20.87
2023-06-06T14:52:37.405Z,20.72
2023-06-06T14:55:05.750Z,20.31
2023-06-06T14:57:33.687Z,20.03
2023-06-06T15:00:04.637Z,20.31
2023-06-06T15:02:33.658Z,20.40
2023-06-06T15:05:04.132Z,20.41
2023-06-06T15:07:33.350Z,19.65
2023-06-06T15:10:01.590Z,20.10
2023-06-06T15:12:29.569Z,20.30
2023-06-06T15:14:57.686Z,19.64
2023-06-06T15:17:27.965Z,19.91
2023-06-06T15:19:57.385Z,19.81
2023-06-06T15:22:25.561Z,19.37
2023-06-06T15:24:53.829Z,18.53
2023-06-06T15:27:24.338Z,18.96
2023-06-06T15:29:56.705Z,19.76
2023-06-06T15:32:28.658Z,20.47
2023-06-06T15:34:57.939Z,20.20
2023-06-06T15:37:27.165Z,19.57
2023-06-06T15:39:57.442Z,19.54
2023-06-06T15:42:27.384Z,18.77
2023-06-06T15:44:59.083Z,17.83
2023-06-06T15:47:28.844Z,15.88
2023-06-06T15:49:56.766Z,16.10
2023-06-06T15:52:27.929Z,15.90
2023-06-06T15:54:59.879Z,15.68
2023-06-06T15:57:30.751Z,15.40
2023-06-06T15:59:58.746Z,16.16
2023-06-06T16:02:27.962Z,17.20
2023-06-06T16:04:56.021Z,17.47
2023-06-06T16:07:25.190Z,17.80
2023-06-06T16:09:53.265Z,17.90
2023-06-06T16:12:21.299Z,18.71
2023-06-06T16:14:49.181Z,19.43
2023-06-06T16:17:18.433Z,19.69
2023-06-06T16:19:47.663Z,19.96
2023-06-06T16:22:16.909Z,20.35
2023-06-06T16:24:44.892Z,20.80
2023-06-06T16:27:13.893Z,21.15
2023-06-06T16:29:41.820Z,21.47
2023-06-06T16:32:10.136Z,21.72
2023-06-06T16:34:40.596Z,21.61
2023-06-06T16:37:08.932Z,21.75
2023-06-06T16:39:39.139Z,21.61
2023-06-06T16:42:08.411Z,21.24
2023-06-06T16:44:38.056Z,21.01
2023-06-06T16:47:06.830Z,20.62
2023-06-06T16:49:34.935Z,20.64
2023-06-06T16:52:03.106Z,20.81
2023-06-06T16:54:36.159Z,21.28
2023-06-06T16:57:10.677Z,21.95
2023-06-06T16:59:38.825Z,22.30
2023-06-06T17:02:08.241Z,22.84
2023-06-06T17:04:37.440Z,23.12
2023-06-06T17:07:05.498Z,22.98
2023-06-06T17:09:33.368Z,21.96
2023-06-06T17:12:02.411Z,21.06
2023-06-06T17:14:31.794Z,20.55
2023-06-06T17:16:59.729Z,19.55
2023-06-06T17:19:27.728Z,17.64
2023-06-06T17:21:55.747Z,17.25
2023-06-06T17:24:23.790Z,16.85
2023-06-06T17:26:53.771Z,16.48
2023-06-06T17:29:22.725Z,17.08
2023-06-06T17:31:51.965Z,17.48
2023-06-06T17:34:22.451Z,17.61
2023-06-06T17:36:50.649Z,17.69
2023-06-06T17:39:18.927Z,17.25
2023-06-06T17:41:46.982Z,16.92
2023-06-06T17:44:15.277Z,17.38
2023-06-06T17:46:45.011Z,17.77
2023-06-06T17:49:13.164Z,17.70
2023-06-06T17:51:44.626Z,18.09
2023-06-06T17:54:14.883Z,18.38
2023-06-06T17:56:44.730Z,18.70
2023-06-06T17:59:14.582Z,19.11
2023-06-06T18:01:43.730Z,19.15
2023-06-06T18:04:14.929Z,19.22
2023-06-06T18:06:45.392Z,19.74
2023-06-06T18:09:15.528Z,19.84
2023-06-06T18:11:45.941Z,19.83
2023-06-06T18:14:14.353Z,20.05
2023-06-06T18:16:43.476Z,20.30
2023-06-06T18:19:12.616Z,20.89
2023-06-06T18:21:42.115Z,21.35
2023-06-06T18:24:11.685Z,21.98
2023-06-06T18:26:43.683Z,22.22
2023-06-06T18:29:13.072Z,22.82
2023-06-06T18:31:41.083Z,23.35
2023-06-06T18:34:15.963Z,24.26
2023-06-06T18:36:48.598Z,24.76
2023-06-06T18:39:17.691Z,25.54
2023-06-06T18:41:47.787Z,26.27
2023-06-06T18:44:16.184Z,27.56
2023-06-06T18:46:48.578Z,27.66
2023-06-06T18:49:18.993Z,28.33
2023-06-06T18:51:50.437Z,28.99
2023-06-06T18:54:23.288Z,29.61
2023-06-06T18:56:55.658Z,30.23
2023-06-06T18:59:23.520Z,30.90
2023-06-06T19:01:54.342Z,31.44
2023-06-06T19:04:22.410Z,32.06
2023-06-06T19:06:51.021Z,32.79
2023-06-06T19:09:20.231Z,33.02
2023-06-06T19:11:50.796Z,33.46
2023-06-06T19:14:21.341Z,34.16
2023-06-06T19:16:51.778Z,34.24
2023-06-06T19:19:23.485Z,34.74
2023-06-06T19:21:53.838Z,34.88
2023-06-06T19:24:22.990Z,35.18
2023-06-06T19:26:53.624Z,35.76
2023-06-06T19:29:22.853Z,36.04
2023-06-06T19:31:52.632Z,36.10
2023-06-06T19:34:21.130Z,36.67
2023-06-06T19:36:50.107Z,37.08
2023-06-06T19:39:21.865Z,37.63
2023-06-06T19:41:51.586Z,37.77
2023-06-06T19:44:22.427Z,38.34
2023-06-06T19:46:52.495Z,38.70
2023-06-06T19:49:23.374Z,39.05
2023-06-06T19:51:54.381Z,39.03
2023-06-06T19:54:24.925Z,39.50
2023-06-06T19:56:56.962Z,39.73
2023-06-06T19:59:26.768Z,40.48
2023-06-06T20:01:58.247Z,40.46
2023-06-06T20:04:29.882Z,41.40
2023-06-06T20:06:58.848Z,42.18
2023-06-06T20:09:27.973Z,42.46
2023-06-06T20:11:58.445Z,43.00
2023-06-06T20:14:27.684Z,43.71
2023-06-06T20:17:01.049Z,44.64
2023-06-06T20:19:30.657Z,45.07
2023-06-06T20:22:01.582Z,45.20
2023-06-06T20:24:32.730Z,45.75
2023-06-06T20:27:03.397Z,46.18
2023-06-06T20:29:33.022Z,46.57
2023-06-06T20:32:01.259Z,47.22
2023-06-06T20:34:30.250Z,47.28
2023-06-06T20:37:01.192Z,47.82
2023-06-06T20:39:37.482Z,48.13
2023-06-06T20:42:08.074Z,48.41
2023-06-06T20:44:37.303Z,48.94
2023-06-06T20:47:07.222Z,49.75
2023-06-06T20:49:37.825Z,49.53
2023-06-06T20:52:08.134Z,49.84
2023-06-06T20:54:37.573Z,50.23
2023-06-06T20:57:07.003Z,50.53
2023-06-06T20:59:34.960Z,50.79
2023-06-06T21:02:04.050Z,51.24
2023-06-06T21:04:31.930Z,51.63
2023-06-06T21:07:00.883Z,52.30
2023-06-06T21:09:31.000Z,52.62
2023-06-06T21:11:58.857Z,53.60
2023-06-06T21:14:31.355Z,53.85
2023-06-06T21:17:02.886Z,54.20
2023-06-06T21:19:33.425Z,54.53
2023-06-06T21:22:02.445Z,54.94
2023-06-06T21:24:33.164Z,55.25
2023-06-06T21:27:02.151Z,55.80
2023-06-06T21:29:30.038Z,56.00
2023-06-06T21:31:59.228Z,55.72
2023-06-06T21:34:28.209Z,56.52
2023-06-06T21:36:56.146Z,56.76
2023-06-06T21:39:24.082Z,56.94
2023-06-06T21:41:53.088Z,56.96
2023-06-06T21:44:21.105Z,57.17
2023-06-06T21:46:49.248Z,57.80
2023-06-06T21:49:18.606Z,57.67
2023-06-06T21:51:46.653Z,57.44
2023-06-06T21:54:14.844Z,57.31
2023-06-06T21:56:44.093Z,57.44
2023-06-06T21:59:13.807Z,57.67
2023-06-06T22:01:46.661Z,57.45
2023-06-06T22:04:14.962Z,57.33
2023-06-06T22:06:46.147Z,57.23
2023-06-06T22:09:14.213Z,57.65
2023-06-06T22:11:43.221Z,57.43
2023-06-06T22:14:11.116Z,57.74
2023-06-06T22:16:41.322Z,57.71
2023-06-06T22:19:13.698Z,58.06
2023-06-06T22:21:41.613Z,58.23
2023-06-06T22:24:09.606Z,58.18
2023-06-06T22:26:41.666Z,57.76
2023-06-06T22:29:12.848Z,58.26
2023-06-06T22:31:40.831Z,58.47
2023-06-06T22:34:10.921Z,58.28
2023-06-06T22:36:39.914Z,57.91
2023-06-06T22:39:11.670Z,57.75
2023-06-06T22:41:40.980Z,57.93
2023-06-06T22:44:10.158Z,57.78
2023-06-06T22:46:39.266Z,57.76
2023-06-06T22:49:09.834Z,57.87
2023-06-06T22:51:39.170Z,58.01
2023-06-06T22:54:08.200Z,58.28
2023-06-06T22:56:37.585Z,58.51
2023-06-06T22:59:06.560Z,58.57
2023-06-06T23:01:34.701Z,59.19
2023-06-06T23:04:03.836Z,59.64
2023-06-06T23:06:32.970Z,60.07
2023-06-06T23:09:02.017Z,60.14
2023-06-06T23:11:31.049Z,60.30
2023-06-06T23:14:00.064Z,60.83
2023-06-06T23:16:29.685Z,61.15
2023-06-06T23:18:59.880Z,61.54
2023-06-06T23:21:29.925Z,62.15
2023-06-06T23:23:59.410Z,63.02
2023-06-06T23:26:28.420Z,62.84
2023-06-06T23:28:57.394Z,63.32
2023-06-06T23:31:25.429Z,62.90
2023-06-06T23:33:56.839Z,63.24
2023-06-06T23:36:25.983Z,63.42
2023-06-06T23:38:55.101Z,63.49
2023-06-06T23:41:24.318Z,63.67
2023-06-06T23:43:52.220Z,63.73
2023-06-06T23:46:20.832Z,64.38
2023-06-06T23:48:49.753Z,64.37
2023-06-06T23:51:18.745Z,64.24
2023-06-06T23:53:46.718Z,64.08
2023-06-06T23:56:14.936Z,63.43
2023-06-06T23:58:43.148Z,63.30
